CMA CGM St Laurent — V7DT3 — position and weather

sailwx.info

Track history (hours):
 
Tides and Currents Weather Stations Pressure Air Temp Water Temp Dewpoint Dewpoint Depression Visibility Wind Speed Wind Dir Waves Ship Positions

CMA CGM St Laurent

Last reported at 2017-Sep-03 11:29 UTC. Time now 2017-Sep-21 03:42 UTC.
Position N 26°13' W 079°22'.
Warning: this ship's position is 17 days out of date.

Length 162.9 m; beam 22.3 m; draft 8.1 m.

Type: Cargo ship. MMSI: 538006477.

Date/timePositionNaut miles runAvg speedWind from/ knotsBaromVisibWave heightAir tempDewpointWater temp
2017-Sep-03 11:29N 26°13' W 079°22'  
2017-Aug-25 12:19N 38°51' W 030°33'412.5
2017-Aug-25 12:00N 38°52' W 030°28'911.2
2017-Aug-25 11:13N 38°54' W 030°17'1 1.1
2017-Aug-25 10:01N 38°55' W 030°16'0 1.8
2017-Aug-25 10:00N 38°55' W 030°16'1 1.1
2017-Aug-25 09:30N 38°56' W 030°15'1 1.1
2017-Aug-25 09:00N 38°56' W 030°15'2 3.8
2017-Aug-25 08:30N 38°57' W 030°13'612.3
2017-Aug-25 08:01N 38°59' W 030°05'612.4
2017-Aug-25 07:30N 39°01' W 029°58'612.2
2017-Aug-25 07:00N 39°02' W 029°50'612.4
2017-Aug-25 06:31N 39°03' W 029°42'612.7
2017-Aug-25 06:00N 39°05' W 029°34'612.5
2017-Aug-25 05:30N 39°06' W 029°26'612.1
2017-Aug-25 05:00N 39°08' W 029°19'612.2
2017-Aug-25 04:30N 39°09' W 029°11'612.5
2017-Aug-25 04:00N 39°11' W 029°03'612.5
2017-Aug-25 03:30N 39°12' W 028°56'612.4
2017-Aug-25 03:00N 39°14' W 028°48'612.3
2017-Aug-25 02:30N 39°15' W 028°40'612.5
2017-Aug-25 02:00N 39°17' W 028°32'612.8
2017-Aug-25 01:30N 39°19' W 028°24'612.6
2017-Aug-25 01:00N 39°20' W 028°16'612.7
2017-Aug-25 00:31N 39°22' W 028°09'612.9
2017-Aug-25 00:00N 39°23' W 028°00'612.9
2017-Aug-24 23:30N 39°24' W 027°52'612.9
2017-Aug-24 23:01N 39°26' W 027°44'612.6
2017-Aug-24 22:30N 39°27' W 027°36'5412.8
2017-Aug-24 18:17N 39°40' W 026°28'412.5
2017-Aug-24 17:56N 39°41' W 026°23'512.0
2017-Aug-24 17:30N 39°43' W 026°17'2 3.2
2017-Aug-24 16:44N 39°44' W 026°13'0 0.5
2017-Aug-24 16:30N 39°43' W 026°13'  
Track history (hours):
 
Tides and Currents Weather Stations Pressure Air Temp Water Temp Dewpoint Dewpoint Depression Visibility Wind Speed Wind Dir Waves Ship Positions

CMA CGM St Laurent

Last reported at 2017-Sep-03 11:29 UTC. Time now 2017-Sep-21 03:42 UTC.
Position N 26°13' W 079°22'.
Warning: this ship's position is 17 days out of date.

Length 162.9 m; beam 22.3 m; draft 8.1 m.

Type: Cargo ship. MMSI: 538006477.

Date/timePositionNaut miles runAvg speedWind from/ knotsBaromVisibWave heightAir tempDewpointWater temp
2017-Sep-03 11:29N 26°13' W 079°22'  
2017-Aug-25 12:19N 38°51' W 030°33'412.5
2017-Aug-25 12:00N 38°52' W 030°28'911.2
2017-Aug-25 11:13N 38°54' W 030°17'1 1.1
2017-Aug-25 10:01N 38°55' W 030°16'0 1.8
2017-Aug-25 10:00N 38°55' W 030°16'1 1.1
2017-Aug-25 09:30N 38°56' W 030°15'1 1.1
2017-Aug-25 09:00N 38°56' W 030°15'2 3.8
2017-Aug-25 08:30N 38°57' W 030°13'612.3
2017-Aug-25 08:01N 38°59' W 030°05'612.4
2017-Aug-25 07:30N 39°01' W 029°58'612.2
2017-Aug-25 07:00N 39°02' W 029°50'612.4
2017-Aug-25 06:31N 39°03' W 029°42'612.7
2017-Aug-25 06:00N 39°05' W 029°34'612.5
2017-Aug-25 05:30N 39°06' W 029°26'612.1
2017-Aug-25 05:00N 39°08' W 029°19'612.2
2017-Aug-25 04:30N 39°09' W 029°11'612.5
2017-Aug-25 04:00N 39°11' W 029°03'612.5
2017-Aug-25 03:30N 39°12' W 028°56'612.4
2017-Aug-25 03:00N 39°14' W 028°48'612.3
2017-Aug-25 02:30N 39°15' W 028°40'612.5
2017-Aug-25 02:00N 39°17' W 028°32'612.8
2017-Aug-25 01:30N 39°19' W 028°24'612.6
2017-Aug-25 01:00N 39°20' W 028°16'612.7
2017-Aug-25 00:31N 39°22' W 028°09'612.9
2017-Aug-25 00:00N 39°23' W 028°00'612.9
2017-Aug-24 23:30N 39°24' W 027°52'612.9
2017-Aug-24 23:01N 39°26' W 027°44'612.6
2017-Aug-24 22:30N 39°27' W 027°36'5412.8
2017-Aug-24 18:17N 39°40' W 026°28'412.5
2017-Aug-24 17:56N 39°41' W 026°23'512.0
2017-Aug-24 17:30N 39°43' W 026°17'2 3.2
2017-Aug-24 16:44N 39°44' W 026°13'0 0.5
2017-Aug-24 16:30N 39°43' W 026°13'  

Dump ship's entire track history